Portada
METAR-TAF:

METAR-TAF

Aeroports :

Pamplona, Espanya

latitud: 42-46N, longitud: 001-38W, altitud: 459 m

Observació

L'informe es va fer fa 16 minuts, a les 21:30 UTC
Vent 5 kt del Oest/Nord-Oest
Temperatura 22°C
Humitat 83%
Pressió 1017 hPa
Visibilitat 10 km o més
sense núvols per sota de 1500 mi sense presència de cumulonimbus.

METAR: LEPP 252130Z 29005KT CAVOK 22/19 Q1017

Hora: 23:46 (21:46 UTC)

Pronòstic

L'informe es va fer fa 1 hora i 46 minuts, a les 20:00 UTC
Pronòstic vàlid del 25 a les 21 UTC al 26 a les 21 UTC
Vent 6 kt del Oest
Visibilitat 10 km o més
sense núvols per sota de 1500 mi sense presència de cumulonimbus.
Evolucionant progressivament
l' 26 a les 06 UTC al 26 a les 08 UTC
Vent 12 kt del Sud/Sud-Est
Temporalment
l' 26 a les 08 UTC al 26 a les 19 UTC
Vent 16 kt del Sud/Sud-Est amb ràfegues de 28 kt

TAF: LEPP 252000Z 2521/2621 28006KT CAVOK TX38/2616Z TN20/2604Z BECMG 2606/2608 15012KT TEMPO 2608/2619 16016G28KT

Observacions i pronòstics meteorològics de més de 4000 aeroports (METAR i TAF).

Les estacions disponibles són els punts grocs i vermells al mapa.

Posi el ratolí al punt desitjat per veure el nom de l'estació.

Feu clic per veure les observacions i els pronòstics meteorològics.

Per canviar el mapa: feu clic els botons verds amb una creu de color negre per apropar; al botó verd amb un guió per allunyar la imatge; o en les fletxes verdes per a mapes adjacents.


METAR-TAF: